Time;durP1;ratioP1;P1;durP2;ratioP2;P2;SDS_P1;SDS_P2;PMS_P1;PMS_P2;Temp;Humidity;BMP_temperature;BMP_pressure;BME280_temperature;BME280_humidity;BME280_pressure;Samples;Min_cycle;Max_cycle;Signal;HPM_P1;HPM_P2
2023/01/23 00:00:48;;;;;;;0.70;0.70;;;;;;;-4.92;83.63;103019.75;5082619;28;19908;-72
2023/01/23 00:03:14;;;;;;;0.70;0.70;;;;;;;-4.95;83.85;103021.13;5084207;28;20106;-73
2023/01/23 00:05:39;;;;;;;0.75;0.75;;;;;;;-5.02;83.92;103022.16;5099711;28;20024;-72
2023/01/23 00:08:05;;;;;;;0.70;0.70;;;;;;;-4.95;84.08;103036.31;5099644;28;20040;-72
2023/01/23 00:10:30;;;;;;;0.70;0.70;;;;;;;-4.89;84.09;103007.38;5084773;28;20021;-71
2023/01/23 00:12:56;;;;;;;0.70;0.70;;;;;;;-4.83;84.10;103008.72;5083168;28;20020;-72
2023/01/23 00:15:21;;;;;;;1.05;1.05;;;;;;;-4.76;84.24;103019.59;5099355;28;20431;-71
2023/01/23 00:17:47;;;;;;;0.70;0.70;;;;;;;-4.69;84.14;102999.91;5085407;28;20035;-72
2023/01/23 00:20:12;;;;;;;0.60;0.60;;;;;;;-4.59;84.17;103007.69;5088048;28;20035;-72
2023/01/23 00:22:38;;;;;;;0.70;0.70;;;;;;;-4.63;83.82;103009.00;5086735;28;20103;-71
2023/01/23 00:25:05;;;;;;;0.70;0.70;;;;;;;-4.59;83.66;103017.81;5086742;28;20017;-71
2023/01/23 00:27:31;;;;;;;0.80;0.80;;;;;;;-4.72;83.67;103008.13;5087731;28;20028;-71
2023/01/23 00:29:56;;;;;;;0.70;0.70;;;;;;;-4.70;83.86;103008.28;5086281;28;20092;-71
2023/01/23 00:32:22;;;;;;;0.70;0.70;;;;;;;-4.68;84.00;103007.66;5086387;28;20028;-71
2023/01/23 00:34:47;;;;;;;0.70;0.70;;;;;;;-4.58;84.23;103001.84;5103382;28;20372;-71
2023/01/23 00:37:15;;;;;;;0.70;0.70;;;;;;;-4.49;84.34;103005.25;5087744;28;20021;-72
2023/01/23 00:39:40;;;;;;;0.70;0.70;;;;;;;-4.42;84.36;103004.22;5103039;28;20055;-72
2023/01/23 00:42:06;;;;;;;0.50;0.50;;;;;;;-4.33;84.00;103006.75;5103999;28;20044;-72
2023/01/23 00:44:31;;;;;;;0.70;0.70;;;;;;;-4.39;83.77;102998.53;5107643;28;20024;-72
2023/01/23 00:46:57;;;;;;;0.70;0.70;;;;;;;-4.40;84.17;102991.66;5089556;28;20543;-71
2023/01/23 00:49:23;;;;;;;1.08;1.08;;;;;;;-4.48;83.96;102989.31;5107795;28;20387;-72
2023/01/23 00:51:49;;;;;;;0.70;0.70;;;;;;;-4.41;84.23;102997.50;5107582;28;20020;-71
2023/01/23 00:54:16;;;;;;;0.70;0.70;;;;;;;-4.39;84.04;102991.81;5106211;28;20020;-71
2023/01/23 00:56:41;;;;;;;0.70;0.70;;;;;;;-4.43;84.24;102991.38;5107629;28;20383;-72
2023/01/23 00:59:07;;;;;;;0.70;0.70;;;;;;;-4.41;84.29;102988.22;5107371;28;20051;-71
2023/01/23 01:01:32;;;;;;;0.70;0.70;;;;;;;-4.43;84.39;102976.16;5107435;28;20020;-71
2023/01/23 01:03:58;;;;;;;0.70;0.70;;;;;;;-4.40;84.57;102968.84;5107622;28;20067;-71
2023/01/23 01:06:25;;;;;;;0.70;0.70;;;;;;;-4.43;84.81;102973.63;5107447;28;20028;-71
2023/01/23 01:08:50;;;;;;;0.70;0.70;;;;;;;-4.45;85.15;102972.59;5106021;28;20043;-71
2023/01/23 01:11:16;;;;;;;0.70;0.70;;;;;;;-4.47;85.22;102954.69;5105826;28;20050;-71
2023/01/23 01:13:43;;;;;;;0.70;0.70;;;;;;;-4.32;85.38;102962.88;5107132;28;20039;-72
2023/01/23 01:16:08;;;;;;;0.70;0.70;;;;;;;-4.30;85.19;102963.91;5107083;28;20030;-71
2023/01/23 01:18:34;;;;;;;0.90;0.90;;;;;;;-4.30;85.38;102981.66;5107171;28;20028;-71
2023/01/23 01:21:00;;;;;;;0.70;0.70;;;;;;;-4.23;85.71;102991.63;5107037;28;20031;-71
2023/01/23 01:23:26;;;;;;;0.70;0.70;;;;;;;-4.13;85.67;103005.16;5107204;28;20045;-71
2023/01/23 01:25:51;;;;;;;0.70;0.70;;;;;;;-4.07;85.90;103009.94;5106786;28;20084;-72
2023/01/23 01:28:17;;;;;;;0.70;0.70;;;;;;;-3.95;85.72;103012.72;5106916;28;20027;-71
2023/01/23 01:30:43;;;;;;;0.95;0.95;;;;;;;-3.90;85.79;103024.22;5105957;28;20031;-70
2023/01/23 01:33:09;;;;;;;0.60;0.60;;;;;;;-3.81;85.61;103024.16;5106846;28;20020;-71
2023/01/23 01:35:38;;;;;;;0.60;0.60;;;;;;;-3.78;85.54;103016.81;5105461;28;20031;-71
2023/01/23 01:38:04;;;;;;;0.70;0.70;;;;;;;-3.75;85.48;103002.78;5106817;28;20418;-71
2023/01/23 01:40:34;;;;;;;0.70;0.70;;;;;;;-3.62;85.63;103017.50;5106548;28;20068;-72
2023/01/23 01:43:07;;;;;;;1.33;1.33;;;;;;;-3.55;85.61;103008.81;5106822;28;20052;-72
2023/01/23 01:45:57;;;;;;;0.60;0.60;;;;;;;-3.43;85.46;103013.19;5106523;28;20024;-72
2023/01/23 01:48:45;;;;;;;0.63;0.63;;;;;;;-3.44;85.34;103011.44;5088499;28;20032;-72
2023/01/23 01:51:17;;;;;;;0.70;0.70;;;;;;;-3.43;85.18;103009.03;5084693;28;20054;-72
2023/01/23 01:53:46;;;;;;;0.70;0.70;;;;;;;-3.42;84.95;103008.25;5106356;28;20460;-72
2023/01/23 01:56:13;;;;;;;0.60;0.60;;;;;;;-3.38;84.84;103022.16;5106549;28;20038;-72
2023/01/23 01:58:41;;;;;;;0.65;0.65;;;;;;;-3.42;84.99;103013.34;5106524;28;20046;-72
2023/01/23 02:01:07;;;;;;;0.60;0.60;;;;;;;-3.40;84.81;103034.72;5106278;28;20020;-72
2023/01/23 02:03:33;;;;;;;0.70;0.70;;;;;;;-3.39;84.60;103036.53;5106224;28;20467;-72
2023/01/23 02:05:59;;;;;;;0.70;0.70;;;;;;;-3.40;84.63;103033.81;5106230;28;20038;-72
2023/01/23 02:08:45;;;;;;;0.70;0.70;;;;;;;-3.42;84.67;103031.13;5088149;28;20042;-72
2023/01/23 02:11:13;;;;;;;0.70;0.70;;;;;;;-3.41;84.83;103030.41;5104849;28;20023;-73
2023/01/23 02:13:41;;;;;;;0.73;0.73;;;;;;;-3.36;84.76;103035.88;5106036;28;20034;-73
2023/01/23 02:16:16;;;;;;;0.63;0.63;;;;;;;-3.36;84.74;103025.72;5104349;28;20024;-73
2023/01/23 02:18:46;;;;;;;0.70;0.70;;;;;;;-3.37;84.75;103023.94;5106107;28;20028;-74
2023/01/23 02:21:14;;;;;;;0.70;0.70;;;;;;;-3.28;84.84;103034.06;5087604;28;20384;-74
2023/01/23 02:23:42;;;;;;;0.70;0.70;;;;;;;-3.22;84.68;103038.78;5104585;28;20051;-73
2023/01/23 02:26:21;;;;;;;0.70;0.70;;;;;;;-3.24;84.76;103052.25;5105604;28;20024;-73
2023/01/23 02:28:50;;;;;;;0.70;0.70;;;;;;;-3.26;84.68;103047.78;5104529;28;20031;-73
2023/01/23 02:31:16;;;;;;;0.70;0.70;;;;;;;-3.20;84.63;103044.91;5104213;28;20091;-73
2023/01/23 02:33:45;;;;;;;0.70;0.70;;;;;;;-3.15;84.72;103047.13;5105528;28;20028;-73
2023/01/23 02:36:11;;;;;;;0.70;0.70;;;;;;;-3.12;84.94;103044.88;5105586;28;20543;-73
2023/01/23 02:38:43;;;;;;;0.70;0.70;;;;;;;-3.11;84.72;103046.63;5104213;28;20091;-73
2023/01/23 02:41:12;;;;;;;0.77;0.77;;;;;;;-3.08;84.77;103042.59;5085824;28;20044;-73
2023/01/23 02:43:38;;;;;;;0.70;0.70;;;;;;;-3.01;84.61;103045.84;5105700;28;20124;-75
2023/01/23 02:46:06;;;;;;;0.70;0.70;;;;;;;-2.99;84.89;103045.97;5105284;28;20057;-73
2023/01/23 02:48:31;;;;;;;0.60;0.60;;;;;;;-2.98;84.82;103045.19;5105437;28;20075;-73
2023/01/23 02:50:56;;;;;;;0.63;0.63;;;;;;;-2.89;84.75;103040.06;5087152;28;20044;-73
2023/01/23 02:53:22;;;;;;;0.60;0.60;;;;;;;-2.83;84.58;103027.00;5105341;28;20027;-74
2023/01/23 02:55:48;;;;;;;0.70;0.70;;;;;;;-2.77;84.26;103022.44;5105122;28;20049;-74
2023/01/23 03:01:17;;;;;;;0.70;0.70;;;;;;;-2.79;84.41;103011.25;5062027;28;20113;-73
2023/01/23 03:03:43;;;;;;;0.60;0.60;;;;;;;-2.72;84.36;103015.22;5062198;28;20079;-73
2023/01/23 03:06:10;;;;;;;0.70;0.70;;;;;;;-2.69;84.44;103018.03;5062144;28;20088;-73
2023/01/23 03:08:46;;;;;;;0.70;0.70;;;;;;;-2.67;84.16;103019.09;5062534;28;20078;-73
2023/01/23 03:11:14;;;;;;;0.70;0.70;;;;;;;-2.69;83.85;103013.84;5045949;28;20036;-74
2023/01/23 03:13:39;;;;;;;0.70;0.70;;;;;;;-2.74;83.78;103005.81;5061930;28;20033;-73
2023/01/23 03:16:06;;;;;;;0.80;0.80;;;;;;;-2.76;83.75;103020.03;5045091;28;20029;-73
2023/01/23 03:18:32;;;;;;;0.73;0.73;;;;;;;-2.82;83.54;103016.06;5061933;28;20047;-73
2023/01/23 03:21:02;;;;;;;0.80;0.80;;;;;;;-2.90;83.50;103018.81;5062016;28;20077;-73
2023/01/23 03:23:27;;;;;;;0.60;0.60;;;;;;;-2.96;83.59;103008.09;5045088;28;20028;-74
2023/01/23 03:25:57;;;;;;;0.70;0.70;;;;;;;-2.99;83.53;103001.09;5061808;28;20033;-73
2023/01/23 03:31:08;;;;;;;0.70;0.70;;;;;;;-2.96;84.05;103007.22;5066982;28;20023;-74
2023/01/23 03:33:34;;;;;;;0.70;0.70;;;;;;;-2.96;83.81;103004.66;5104580;28;20418;-74
2023/01/23 03:36:00;;;;;;;0.60;0.60;;;;;;;-2.94;83.82;103005.69;5086138;28;20110;-73
2023/01/23 03:38:25;;;;;;;0.60;0.60;;;;;;;-2.95;83.77;103014.06;5104657;28;20404;-73
2023/01/23 03:43:34;;;;;;;0.60;0.60;;;;;;;-2.93;83.57;102994.75;5104721;28;20054;-73
2023/01/23 03:46:00;;;;;;;0.70;0.70;;;;;;;-3.04;83.36;102989.63;5104168;28;20012;-74
2023/01/23 03:48:25;;;;;;;0.70;0.70;;;;;;;-2.96;83.45;103004.66;5104487;28;20045;-74
2023/01/23 03:50:51;;;;;;;0.70;0.70;;;;;;;-3.02;83.43;102998.28;5104469;28;20031;-73
2023/01/23 03:53:16;;;;;;;0.70;0.70;;;;;;;-3.04;83.37;102994.72;5102821;28;20323;-72
2023/01/23 03:55:44;;;;;;;0.60;0.60;;;;;;;-3.09;83.39;102995.94;5103132;28;20434;-73
2023/01/23 03:58:10;;;;;;;0.70;0.70;;;;;;;-3.06;83.83;103003.84;5104443;28;20264;-73
2023/01/23 04:00:35;;;;;;;0.60;0.60;;;;;;;-3.03;83.69;103010.84;5085844;28;20220;-74
2023/01/23 04:03:01;;;;;;;0.60;0.60;;;;;;;-3.06;83.71;103006.38;5102835;28;20027;-74
2023/01/23 04:05:26;;;;;;;0.70;0.70;;;;;;;-3.00;83.75;103006.94;5086079;28;20055;-74
2023/01/23 04:07:52;;;;;;;0.60;0.60;;;;;;;-3.02;83.83;102994.84;5104203;28;20045;-74
2023/01/23 04:10:17;;;;;;;0.70;0.70;;;;;;;-2.91;83.65;102998.34;5104301;28;20022;-74
2023/01/23 04:12:42;;;;;;;0.60;0.60;;;;;;;-2.92;83.31;102997.44;5104371;28;20054;-75
2023/01/23 04:15:09;;;;;;;0.70;0.70;;;;;;;-2.98;83.22;102991.81;5104283;28;20020;-74
2023/01/23 04:17:34;;;;;;;0.70;0.70;;;;;;;-2.94;83.39;103003.16;5104370;28;20043;-74
2023/01/23 04:20:00;;;;;;;1.17;1.15;;;;;;;-2.97;83.38;102996.13;5104008;28;20485;-74
2023/01/23 04:22:25;;;;;;;0.70;0.70;;;;;;;-2.97;83.41;102990.19;5104117;28;20035;-74
2023/01/23 04:24:50;;;;;;;0.70;0.70;;;;;;;-2.95;83.48;102993.72;5102691;28;20031;-73
2023/01/23 04:27:16;;;;;;;3.45;2.33;;;;;;;-2.95;83.34;102998.81;5104087;28;20059;-74
2023/01/23 04:29:41;;;;;;;0.60;0.60;;;;;;;-3.06;83.64;102988.59;5103844;28;20063;-73
2023/01/23 04:32:08;;;;;;;0.70;0.70;;;;;;;-2.94;83.61;102993.88;5102529;28;20123;-73
2023/01/23 04:34:34;;;;;;;0.60;0.60;;;;;;;-2.79;83.78;102996.88;5102843;28;20024;-73
2023/01/23 04:36:59;;;;;;;0.60;0.60;;;;;;;-2.76;83.94;102987.00;5104209;28;20043;-73
2023/01/23 04:39:25;;;;;;;0.60;0.60;;;;;;;-2.61;83.89;102994.19;5085877;28;20023;-73
2023/01/23 04:41:50;;;;;;;0.60;0.60;;;;;;;-2.51;83.73;102990.81;5103760;28;20040;-73
2023/01/23 04:44:18;;;;;;;0.70;0.70;;;;;;;-2.51;83.50;102985.72;5103729;28;20038;-73
2023/01/23 04:46:45;;;;;;;0.77;0.77;;;;;;;-2.50;83.39;102985.84;5103852;28;20059;-74
2023/01/23 04:49:11;;;;;;;0.70;0.70;;;;;;;-2.52;83.09;102991.53;5103958;28;20505;-74
2023/01/23 04:51:36;;;;;;;0.60;0.60;;;;;;;-2.55;82.83;102994.72;5103416;28;20036;-73
2023/01/23 04:54:02;;;;;;;0.70;0.70;;;;;;;-2.62;82.72;102984.78;5085422;28;20028;-73
2023/01/23 04:56:27;;;;;;;0.80;0.80;;;;;;;-2.62;82.96;102985.66;5103796;28;20024;-75
2023/01/23 04:58:53;;;;;;;0.70;0.70;;;;;;;-2.65;82.95;102974.34;5103569;28;20031;-74
2023/01/23 05:01:22;;;;;;;1.42;1.42;;;;;;;-2.65;82.99;102971.78;5103599;28;20088;-75
2023/01/23 05:03:48;;;;;;;1.75;1.67;;;;;;;-2.65;83.19;102987.06;5102310;28;20020;-75
2023/01/23 05:06:14;;;;;;;0.70;0.70;;;;;;;-2.64;83.24;102986.28;5107224;28;20032;-74
2023/01/23 05:08:39;;;;;;;0.70;0.70;;;;;;;-2.55;83.52;102986.19;5106023;28;20093;-74
2023/01/23 05:11:04;;;;;;;0.60;0.60;;;;;;;-2.51;83.37;102991.66;5107458;28;20019;-76
2023/01/23 05:13:30;;;;;;;0.70;0.70;;;;;;;-2.44;83.49;102989.66;5088944;28;20024;-74
2023/01/23 05:15:56;;;;;;;0.68;0.68;;;;;;;-2.40;83.37;102992.63;5088626;28;20049;-75
2023/01/23 05:18:21;;;;;;;0.70;0.70;;;;;;;-2.30;83.33;102991.75;5088744;28;20057;-75
2023/01/23 05:20:47;;;;;;;0.60;0.60;;;;;;;-2.31;83.57;102989.97;5107059;28;20058;-75
2023/01/23 05:23:12;;;;;;;0.80;0.80;;;;;;;-2.26;83.53;102993.81;5107224;28;20012;-76
2023/01/23 05:25:38;;;;;;;0.70;0.70;;;;;;;-2.19;83.44;102992.69;5107076;28;20023;-74
2023/01/23 05:28:03;;;;;;;0.70;0.70;;;;;;;-2.07;83.35;102997.94;5106918;28;20053;-75
2023/01/23 05:30:28;;;;;;;0.70;0.70;;;;;;;-2.12;83.34;102994.09;5106769;28;20016;-75
2023/01/23 05:32:54;;;;;;;0.70;0.70;;;;;;;-2.02;83.33;103003.41;5106951;28;20432;-74
2023/01/23 05:35:19;;;;;;;0.70;0.70;;;;;;;-1.96;83.23;103003.94;5106627;28;20527;-75
2023/01/23 05:37:51;;;;;;;0.70;0.70;;;;;;;-2.01;82.98;102992.47;5106906;28;20024;-75
2023/01/23 05:40:18;;;;;;;0.70;0.70;;;;;;;-1.99;82.61;103001.13;5106592;28;20054;-74
2023/01/23 05:42:44;;;;;;;0.60;0.60;;;;;;;-2.04;82.67;103002.38;5106498;28;20055;-76
2023/01/23 05:45:11;;;;;;;0.90;0.90;;;;;;;-2.09;82.51;102996.03;5106395;28;20021;-75
2023/01/23 05:47:36;;;;;;;0.70;0.70;;;;;;;-2.14;82.84;103001.59;5088020;28;20029;-74
2023/01/23 05:50:03;;;;;;;0.70;0.70;;;;;;;-2.14;82.88;102996.50;5105213;28;20032;-75
2023/01/23 05:52:29;;;;;;;0.70;0.70;;;;;;;-2.15;82.80;102983.66;5106492;28;20023;-74
2023/01/23 05:54:54;;;;;;;0.70;0.70;;;;;;;-2.10;83.04;103014.59;5088395;28;20233;-74
2023/01/23 05:57:20;;;;;;;0.60;0.60;;;;;;;-2.17;82.97;103010.66;5106316;28;20020;-73
2023/01/23 05:59:45;;;;;;;0.60;0.60;;;;;;;-2.15;83.27;103012.56;5106329;28;20035;-75
2023/01/23 06:02:11;;;;;;;0.60;0.60;;;;;;;-2.10;83.19;103018.03;5106013;28;20016;-74
2023/01/23 06:04:36;;;;;;;0.80;0.80;;;;;;;-2.01;83.24;103028.09;5088131;28;20046;-74
2023/01/23 06:07:02;;;;;;;0.60;0.60;;;;;;;-1.97;83.09;103030.19;5106338;28;20467;-74
2023/01/23 06:09:28;;;;;;;0.70;0.70;;;;;;;-1.91;82.85;103019.63;5088033;28;20046;-73
2023/01/23 06:11:53;;;;;;;0.63;0.63;;;;;;;-1.87;83.13;103017.47;5106201;28;20028;-74
2023/01/23 06:14:18;;;;;;;0.60;0.60;;;;;;;-1.76;82.99;103025.13;5105789;28;20035;-75
2023/01/23 06:16:44;;;;;;;0.60;0.60;;;;;;;-1.83;82.90;103004.97;5104458;28;20035;-74
2023/01/23 06:19:09;;;;;;;0.60;0.60;;;;;;;-1.76;82.87;103022.59;5105889;28;20028;-75
2023/01/23 06:21:35;;;;;;;0.60;0.60;;;;;;;-1.79;83.10;103019.78;5105692;28;20039;-71
2023/01/23 06:24:01;;;;;;;0.70;0.70;;;;;;;-1.78;82.49;103024.09;5087518;28;20083;-74
2023/01/23 06:26:26;;;;;;;0.60;0.60;;;;;;;-1.63;82.53;103034.72;5104364;28;20065;-75
2023/01/23 06:28:52;;;;;;;0.60;0.60;;;;;;;-1.67;82.40;103040.28;5104382;28;20056;-74
2023/01/23 06:31:17;;;;;;;0.70;0.70;;;;;;;-1.71;81.96;103036.59;5087321;28;20061;-74
2023/01/23 06:33:43;;;;;;;0.60;0.60;;;;;;;-1.71;82.04;103038.25;5104422;28;20020;-74
2023/01/23 06:36:09;;;;;;;0.55;0.55;;;;;;;-1.68;81.96;103051.25;5105445;28;20087;-74
2023/01/23 06:38:34;;;;;;;0.70;0.70;;;;;;;-1.61;81.86;103043.34;5105706;28;20050;-74
2023/01/23 06:41:00;;;;;;;0.70;0.70;;;;;;;-1.60;82.01;103049.34;5087155;28;20040;-73
2023/01/23 06:43:26;;;;;;;0.55;0.55;;;;;;;-1.56;82.01;103052.28;5105521;28;20028;-73
2023/01/23 06:45:51;;;;;;;0.50;0.50;;;;;;;-1.58;81.38;103064.00;5105319;28;20028;-73
2023/01/23 06:48:17;;;;;;;1.45;1.45;;;;;;;-1.64;80.94;103055.84;5105431;28;20134;-78
2023/01/23 06:50:43;;;;;;;0.70;0.70;;;;;;;-1.58;80.53;103058.91;5105459;28;20024;-77
2023/01/23 06:53:13;;;;;;;0.70;0.70;;;;;;;-1.47;80.96;103052.16;5087213;28;20023;-77
2023/01/23 06:55:39;;;;;;;0.50;0.50;;;;;;;-1.56;80.88;103034.44;5105489;28;20031;-78
2023/01/23 06:58:05;;;;;;;0.65;0.65;;;;;;;-1.41;81.17;103039.06;5103957;28;20112;-79
2023/01/23 07:00:33;;;;;;;0.70;0.70;;;;;;;-1.36;81.25;103040.34;5105122;28;20028;-78
2023/01/23 07:03:02;;;;;;;0.70;0.70;;;;;;;-1.41;81.00;103019.56;5105138;28;20016;-77
2023/01/23 07:05:28;;;;;;;0.60;0.60;;;;;;;-1.34;80.93;103022.63;5104032;28;20031;-78
2023/01/23 07:07:54;;;;;;;0.68;0.68;;;;;;;-1.23;81.20;103029.47;5105234;28;20035;-78
2023/01/23 07:10:20;;;;;;;0.60;0.60;;;;;;;-1.23;81.05;103028.59;5104917;28;20016;-77
2023/01/23 07:12:45;;;;;;;0.65;0.65;;;;;;;-1.30;80.77;103030.66;5105137;28;20047;-78
2023/01/23 07:15:10;;;;;;;0.60;0.60;;;;;;;-1.37;81.09;103041.09;5086398;28;20092;-79
2023/01/23 07:17:36;;;;;;;0.50;0.50;;;;;;;-1.30;81.07;103050.13;5105014;28;20030;-79
2023/01/23 07:20:01;;;;;;;0.63;0.63;;;;;;;-1.37;81.20;103041.97;5105053;28;20066;-78
2023/01/23 07:22:27;;;;;;;0.60;0.60;;;;;;;-1.39;81.19;103051.16;5104842;28;20102;-77
2023/01/23 07:24:52;;;;;;;0.60;0.60;;;;;;;-1.40;81.00;103058.66;5104862;28;20020;-78
2023/01/23 07:27:17;;;;;;;0.60;0.60;;;;;;;-1.37;80.59;103064.03;5104509;28;20024;-78
2023/01/23 07:29:43;;;;;;;0.60;0.60;;;;;;;-1.33;80.88;103055.88;5104622;28;20024;-76
2023/01/23 07:32:08;;;;;;;0.70;0.70;;;;;;;-1.28;81.21;103052.03;5104916;28;20016;-77
2023/01/23 07:34:34;;;;;;;0.60;0.60;;;;;;;-1.29;81.03;103052.81;5103363;28;20029;-78
2023/01/23 07:36:59;;;;;;;0.60;0.60;;;;;;;-1.28;81.13;103063.91;5104913;28;20032;-78
2023/01/23 07:39:25;;;;;;;0.60;0.60;;;;;;;-1.29;81.17;103062.09;5105114;28;20020;-79
2023/01/23 07:41:50;;;;;;;0.63;0.63;;;;;;;-1.43;80.82;103038.03;5086759;28;20044;-79
2023/01/23 07:44:19;;;;;;;0.70;0.70;;;;;;;-1.33;80.63;103060.97;5103031;28;20487;-78
2023/01/23 07:46:45;;;;;;;0.60;0.60;;;;;;;-1.32;80.94;103060.22;5102348;28;20115;-79
2023/01/23 07:49:11;;;;;;;0.70;0.70;;;;;;;-1.29;80.71;103062.09;5102922;28;20463;-77
2023/01/23 07:51:37;;;;;;;0.60;0.60;;;;;;;-1.27;80.83;103064.03;5102639;28;20604;-78
2023/01/23 07:54:03;;;;;;;0.70;0.70;;;;;;;-1.22;80.50;103068.63;5103486;28;20031;-78
2023/01/23 07:56:28;;;;;;;0.60;0.60;;;;;;;-1.17;80.37;103064.81;5103773;28;20054;-78
2023/01/23 07:58:53;;;;;;;0.70;0.70;;;;;;;-1.15;80.75;103074.34;5102910;28;20443;-79
2023/01/23 08:01:19;;;;;;;0.60;0.60;;;;;;;-1.07;80.52;103076.66;5084263;28;20104;-78
2023/01/23 08:03:45;;;;;;;0.60;0.60;;;;;;;-1.12;80.71;103073.72;5102982;28;20103;-78
2023/01/23 08:06:11;;;;;;;0.60;0.60;;;;;;;-1.13;80.43;103072.84;5104001;28;20035;-78
2023/01/23 08:08:36;;;;;;;0.60;0.60;;;;;;;-1.09;79.85;103076.53;5085650;28;20028;-79
2023/01/23 08:11:04;;;;;;;0.60;0.60;;;;;;;-1.06;80.15;103081.88;5104073;28;20433;-78
2023/01/23 08:13:30;;;;;;;0.60;0.60;;;;;;;-1.06;80.17;103079.34;5085832;28;20067;-77
2023/01/23 08:15:57;;;;;;;0.60;0.60;;;;;;;-1.09;80.16;103073.09;5103700;28;20460;-79
2023/01/23 08:18:22;;;;;;;0.60;0.60;;;;;;;-1.01;80.00;103082.25;5103896;28;20035;-79
2023/01/23 08:20:53;;;;;;;0.70;0.70;;;;;;;-1.25;79.80;103056.53;5102510;28;20146;-79
2023/01/23 08:23:19;;;;;;;1.95;1.85;;;;;;;-1.09;79.14;103076.53;5104254;28;20024;-77
2023/01/23 08:25:44;;;;;;;2.88;2.78;;;;;;;-1.08;79.04;103072.31;5103995;28;20050;-78
2023/01/23 08:28:09;;;;;;;0.60;0.60;;;;;;;-1.09;78.39;103081.63;5104048;28;20270;-77
2023/01/23 08:30:36;;;;;;;0.60;0.60;;;;;;;-1.12;78.00;103084.81;5103538;28;20480;-77
2023/01/23 08:33:03;;;;;;;0.75;0.75;;;;;;;-1.09;78.17;103081.63;5103665;28;20130;-78
2023/01/23 08:35:29;;;;;;;0.65;0.65;;;;;;;-1.06;77.51;103081.88;5086094;28;20149;-77
2023/01/23 08:37:54;;;;;;;0.70;0.70;;;;;;;-1.01;78.38;103085.69;5103804;28;20399;-78
2023/01/23 08:40:20;;;;;;;0.60;0.60;;;;;;;-0.96;78.09;103080.09;5105942;28;20016;-78
2023/01/23 08:42:45;;;;;;;0.55;0.55;;;;;;;-0.91;78.10;103076.28;5088965;28;20077;-78
2023/01/23 08:45:11;;;;;;;0.60;0.60;;;;;;;-0.94;78.11;103078.56;5107485;28;20020;-78
2023/01/23 08:47:37;;;;;;;0.60;0.60;;;;;;;-0.86;77.91;103087.72;5107846;28;20028;-78
2023/01/23 08:50:04;;;;;;;0.60;0.60;;;;;;;-0.83;78.70;103074.34;5107655;28;20032;-78
2023/01/23 08:52:30;;;;;;;0.70;0.70;;;;;;;-0.81;78.03;103076.25;5107276;28;20025;-78
2023/01/23 08:54:55;;;;;;;0.60;0.60;;;;;;;-0.91;77.54;103066.94;5089380;28;20056;-79
2023/01/23 08:57:20;;;;;;;2.45;2.35;;;;;;;-0.93;76.40;103082.91;5107684;28;20173;-78
2023/01/23 08:59:46;;;;;;;0.70;0.70;;;;;;;-0.92;76.60;103089.78;5107855;28;20028;-78
2023/01/23 09:02:11;;;;;;;0.80;0.80;;;;;;;-0.91;75.78;103094.13;5108009;28;20020;-79
2023/01/23 09:04:37;;;;;;;0.95;0.95;;;;;;;-0.83;76.64;103093.06;5107375;28;20012;-78
2023/01/23 09:07:02;;;;;;;2.10;2.00;;;;;;;-0.84;76.25;103096.41;5107403;28;20028;-78
2023/01/23 09:09:28;;;;;;;8.90;4.82;;;;;;;-0.85;75.83;103084.44;5108103;28;20052;-77
2023/01/23 09:11:54;;;;;;;0.50;0.50;;;;;;;-0.82;75.40;103094.88;5107810;28;20039;-77
2023/01/23 09:14:19;;;;;;;0.75;0.75;;;;;;;-0.76;75.96;103079.16;5107496;28;20020;-78
2023/01/23 09:16:45;;;;;;;1.05;1.05;;;;;;;-0.72;76.26;103090.53;5106721;28;20027;-78
2023/01/23 09:19:11;;;;;;;0.70;0.70;;;;;;;-0.71;76.17;103083.00;5107083;28;20020;-77
2023/01/23 09:21:37;;;;;;;0.60;0.60;;;;;;;-0.77;75.94;103072.28;5106969;28;20020;-79
2023/01/23 09:24:02;;;;;;;0.70;0.70;;;;;;;-0.75;75.42;103083.50;5107044;28;20035;-78
2023/01/23 09:26:28;;;;;;;0.60;0.60;;;;;;;-0.81;75.64;103070.25;5106935;28;20157;-78
2023/01/23 09:28:54;;;;;;;0.60;0.60;;;;;;;-0.84;75.70;103086.19;5106943;28;20031;-79
2023/01/23 09:31:19;;;;;;;0.55;0.55;;;;;;;-0.75;75.67;103092.06;5106728;28;20020;-78
2023/01/23 09:33:47;;;;;;;0.60;0.60;;;;;;;-0.80;75.83;103085.66;5088479;28;20019;-79
2023/01/23 09:36:12;;;;;;;0.60;0.60;;;;;;;-0.77;75.74;103097.81;5106639;28;20050;-78
2023/01/23 09:38:38;;;;;;;0.60;0.60;;;;;;;-0.68;75.74;103095.09;5106615;28;20024;-78
2023/01/23 09:41:22;;;;;;;0.60;0.60;;;;;;;-0.72;75.67;103090.53;5106632;28;20051;-78
2023/01/23 09:43:57;;;;;;;0.70;0.70;;;;;;;-0.68;75.47;103097.66;5088400;28;20088;-78
2023/01/23 09:46:43;;;;;;;0.60;0.60;;;;;;;-0.77;74.61;103082.50;5088106;28;20094;-79
2023/01/23 09:49:17;;;;;;;0.60;0.60;;;;;;;-0.75;74.73;103086.03;5106790;28;20251;-79
2023/01/23 09:51:48;;;;;;;0.50;0.50;;;;;;;-0.72;74.48;103090.53;5087688;28;20085;-79
2023/01/23 09:54:36;;;;;;;0.70;0.70;;;;;;;-0.69;74.69;103083.13;5106233;28;20046;-79
2023/01/23 09:57:10;;;;;;;0.60;0.60;;;;;;;-0.56;75.11;103075.69;5106392;28;20035;-79
2023/01/23 09:59:40;;;;;;;0.50;0.50;;;;;;;-0.63;74.86;103071.75;5106113;28;20087;-78
2023/01/23 10:02:18;;;;;;;0.80;0.80;;;;;;;-0.61;74.26;103064.22;5087875;28;20051;-79
2023/01/23 10:04:50;;;;;;;0.60;0.60;;;;;;;-0.58;74.32;103074.69;5087754;28;20038;-77
2023/01/23 10:07:18;;;;;;;17.83;6.63;;;;;;;-0.55;74.20;103071.47;5106072;28;20020;-77
2023/01/23 10:09:52;;;;;;;0.75;0.75;;;;;;;-0.56;74.44;103068.03;5087833;28;20066;-78
2023/01/23 10:12:48;;;;;;;0.60;0.60;;;;;;;-0.53;74.17;103070.81;5105954;28;20505;-79
2023/01/23 10:15:53;;;;;;;0.60;0.60;;;;;;;-0.52;74.34;103064.97;5105871;28;20059;-78
2023/01/23 10:18:31;;;;;;;1.02;1.00;;;;;;;-0.48;74.52;103055.00;5054143;28;20048;-78
2023/01/23 10:21:08;;;;;;;0.60;0.60;;;;;;;-0.46;74.31;103059.44;5104475;28;20024;-78
2023/01/23 10:23:49;;;;;;;0.57;0.57;;;;;;;-0.54;74.04;103069.03;5105841;28;20421;-77
2023/01/23 10:26:20;;;;;;;0.60;0.60;;;;;;;-0.54;74.38;103071.59;5106056;28;20088;-78
2023/01/23 10:28:46;;;;;;;0.82;0.82;;;;;;;-0.46;73.96;103071.34;5105805;28;20054;-78
2023/01/23 10:31:37;;;;;;;0.60;0.60;;;;;;;-0.58;73.84;103059.38;5105373;28;20024;-77
2023/01/23 10:34:08;;;;;;;0.60;0.60;;;;;;;-0.53;73.42;103075.91;5105851;28;20023;-79
2023/01/23 10:37:05;;;;;;;0.60;0.60;;;;;;;-0.51;73.57;103076.03;5087370;28;20024;-78
2023/01/23 10:39:43;;;;;;;0.65;0.65;;;;;;;-0.47;74.08;103072.09;5104141;28;20024;-78
2023/01/23 10:42:12;;;;;;;0.60;0.60;;;;;;;-0.43;74.05;103080.13;5105464;28;20048;-78
2023/01/23 10:44:38;;;;;;;0.52;0.52;;;;;;;-0.48;74.10;103062.66;5105671;28;20165;-77
2023/01/23 10:47:14;;;;;;;0.60;0.60;;;;;;;-0.45;73.53;103075.66;5105375;28;20476;-78
2023/01/23 10:49:43;;;;;;;0.90;0.88;;;;;;;-0.53;73.45;103054.63;5105763;28;20054;-78
2023/01/23 10:52:42;;;;;;;0.60;0.60;;;;;;;-0.42;73.18;103081.91;5105449;28;20032;-78
2023/01/23 10:55:29;;;;;;;0.70;0.70;;;;;;;-0.46;72.94;103068.78;5081091;28;20039;-78
2023/01/23 10:57:58;;;;;;;0.60;0.60;;;;;;;-0.48;72.96;103073.78;5105299;28;20110;-78
2023/01/23 11:00:33;;;;;;;0.60;0.60;;;;;;;-0.45;73.27;103070.56;5105167;28;20052;-79
2023/01/23 11:03:24;;;;;;;0.60;0.60;;;;;;;-0.35;72.85;103067.97;5104357;28;20066;-78
2023/01/23 11:06:00;;;;;;;0.70;0.70;;;;;;;-0.22;73.27;103063.84;5086886;28;20019;-78
2023/01/23 11:08:37;;;;;;;0.60;0.60;;;;;;;-0.24;73.09;103056.06;5103591;28;20035;-78
2023/01/23 11:11:15;;;;;;;0.60;0.60;;;;;;;-0.15;72.43;103067.00;5105114;28;20024;-78
2023/01/23 11:13:46;;;;;;;0.55;0.55;;;;;;;-0.18;72.43;103081.19;5086978;28;20035;-79
2023/01/23 11:16:18;;;;;;;0.70;0.70;;;;;;;-0.19;72.37;103067.53;5104799;28;20028;-78
2023/01/23 11:18:52;;;;;;;0.80;0.80;;;;;;;-0.15;72.68;103061.91;5086494;28;20028;-78
2023/01/23 11:21:28;;;;;;;0.60;0.60;;;;;;;-0.19;72.91;103057.31;5086409;28;20024;-77
2023/01/23 11:24:17;;;;;;;0.60;0.60;;;;;;;-0.19;72.43;103052.19;5104793;28;20076;-78
2023/01/23 11:26:43;;;;;;;0.70;0.70;;;;;;;-0.18;72.47;103046.34;5104754;28;20039;-78
2023/01/23 11:29:50;;;;;;;1.80;1.70;;;;;;;-0.13;72.16;103039.03;5104920;28;20099;-78
2023/01/23 11:32:16;;;;;;;0.57;0.57;;;;;;;-0.16;72.17;103046.47;4986195;28;20034;-78
2023/01/23 11:34:49;;;;;;;0.50;0.50;;;;;;;-0.13;72.15;103042.47;5002829;28;20030;-78
2023/01/23 11:37:15;;;;;;;0.60;0.60;;;;;;;-0.08;71.92;103041.94;4986365;28;20038;-79